createdAt,value
2019-03-23T00:00:10.846Z,12.18
2019-03-23T00:02:39.505Z,13.58
2019-03-23T00:05:09.559Z,12.33
2019-03-23T00:07:38.213Z,13.13
2019-03-23T00:10:07.731Z,12.93
2019-03-23T00:12:36.386Z,12.15
2019-03-23T00:15:09.065Z,13.15
2019-03-23T00:17:38.597Z,12.40
2019-03-23T00:20:07.740Z,13.15
2019-03-23T00:22:36.667Z,13.88
2019-03-23T00:25:05.986Z,13.28
2019-03-23T00:27:34.831Z,13.78
2019-03-23T00:30:06.712Z,13.78
2019-03-23T00:32:35.520Z,13.83
2019-03-23T00:35:06.528Z,13.50
2019-03-23T00:37:35.421Z,12.88
2019-03-23T00:40:09.398Z,13.48
2019-03-23T00:42:37.994Z,13.13
2019-03-23T00:45:08.566Z,14.65
2019-03-23T00:47:37.243Z,13.28
2019-03-23T00:50:07.706Z,13.85
2019-03-23T00:52:36.311Z,13.90
2019-03-23T00:55:07.585Z,13.70
2019-03-23T00:57:36.365Z,14.93
2019-03-23T01:00:13.066Z,14.33
2019-03-23T01:02:42.167Z,14.05
2019-03-23T01:05:11.407Z,15.00
2019-03-23T01:07:40.073Z,12.98
2019-03-23T01:10:11.097Z,14.18
2019-03-23T01:12:39.881Z,13.15
2019-03-23T01:15:11.429Z,13.45
2019-03-23T01:17:40.256Z,13.68
2019-03-23T01:20:11.417Z,14.18
2019-03-23T01:22:40.096Z,14.28
2019-03-23T01:25:10.464Z,14.05
2019-03-23T01:27:39.068Z,13.75
2019-03-23T01:30:13.559Z,13.50
2019-03-23T01:32:42.163Z,13.25
2019-03-23T01:35:11.230Z,14.10
2019-03-23T01:37:39.837Z,13.70
2019-03-23T01:40:09.644Z,14.00
2019-03-23T01:42:38.251Z,15.23
2019-03-23T01:45:10.870Z,14.13
2019-03-23T01:47:39.527Z,13.97
2019-03-23T01:50:09.737Z,13.53
2019-03-23T01:52:38.484Z,13.45
2019-03-23T01:55:08.097Z,12.73
2019-03-23T01:57:36.714Z,12.37
2019-03-23T02:00:09.373Z,12.43
2019-03-23T02:02:38.025Z,11.10
2019-03-23T02:05:08.091Z,11.05
2019-03-23T02:07:36.743Z,10.40
2019-03-23T02:10:08.261Z,10.18
2019-03-23T02:12:36.867Z,9.50
2019-03-23T02:15:09.429Z,9.63
2019-03-23T02:17:38.042Z,8.50
2019-03-23T02:20:12.115Z,8.20
2019-03-23T02:22:41.019Z,8.48
2019-03-23T02:25:09.960Z,8.48
2019-03-23T02:27:38.788Z,8.20
2019-03-23T02:30:14.074Z,7.90
2019-03-23T02:32:42.727Z,7.92
2019-03-23T02:35:11.671Z,8.10
2019-03-23T02:37:40.282Z,8.73
2019-03-23T02:40:10.179Z,8.10
2019-03-23T02:42:38.958Z,8.80
2019-03-23T02:45:12.321Z,8.43
2019-03-23T02:47:41.153Z,8.33
2019-03-23T02:50:10.927Z,9.10
2019-03-23T02:52:39.628Z,9.58
2019-03-23T02:55:10.106Z,9.93
2019-03-23T02:57:39.027Z,9.60
2019-03-23T03:00:11.182Z,9.48
2019-03-23T03:02:39.913Z,8.50
2019-03-23T03:05:09.320Z,8.95
2019-03-23T03:07:42.564Z,9.55
2019-03-23T03:10:11.116Z,8.80
2019-03-23T03:12:39.718Z,9.78
2019-03-23T03:15:09.731Z,9.60
2019-03-23T03:17:38.433Z,8.95
2019-03-23T03:20:10.898Z,9.85
2019-03-23T03:22:39.557Z,10.30
2019-03-23T03:25:08.726Z,8.95
2019-03-23T03:27:37.554Z,9.53
2019-03-23T03:30:10.570Z,9.63
2019-03-23T03:32:39.307Z,9.28
2019-03-23T03:35:08.651Z,9.48
2019-03-23T03:37:37.268Z,9.58
2019-03-23T03:40:07.448Z,9.30
2019-03-23T03:42:36.172Z,10.38
2019-03-23T03:45:11.077Z,9.78
2019-03-23T03:47:41.389Z,9.88
2019-03-23T03:50:11.601Z,10.15
2019-03-23T03:52:40.292Z,10.53
2019-03-23T03:55:09.018Z,10.25
2019-03-23T03:57:37.691Z,10.78
2019-03-23T04:00:09.074Z,10.50
2019-03-23T04:02:38.057Z,11.33
2019-03-23T04:05:08.041Z,11.38
2019-03-23T04:07:36.645Z,11.57
2019-03-23T04:10:07.115Z,11.38
2019-03-23T04:12:35.725Z,11.57
2019-03-23T04:15:07.998Z,11.83
2019-03-23T04:17:36.611Z,12.58
2019-03-23T04:20:09.940Z,12.43
2019-03-23T04:22:38.564Z,12.65
2019-03-23T04:25:10.157Z,11.18
2019-03-23T04:27:38.947Z,11.33
2019-03-23T04:30:10.681Z,11.80
2019-03-23T04:32:39.404Z,12.03
2019-03-23T04:35:08.774Z,11.38
2019-03-23T04:37:37.495Z,12.55
2019-03-23T04:40:11.103Z,12.03
2019-03-23T04:42:39.766Z,11.48
2019-03-23T04:45:10.276Z,11.10
2019-03-23T04:47:38.936Z,10.30
2019-03-23T04:50:10.451Z,10.48
2019-03-23T04:52:39.180Z,9.73
2019-03-23T04:55:12.824Z,11.45
2019-03-23T04:57:41.478Z,11.15
2019-03-23T05:00:16.414Z,10.82
2019-03-23T05:02:45.639Z,11.48
2019-03-23T05:05:14.367Z,10.72
2019-03-23T05:07:43.018Z,10.88
2019-03-23T05:10:12.684Z,10.53
2019-03-23T05:12:41.486Z,10.80
2019-03-23T05:15:11.057Z,10.15
2019-03-23T05:17:39.659Z,11.08
2019-03-23T05:20:10.531Z,11.60
2019-03-23T05:22:39.207Z,11.25
2019-03-23T05:25:11.084Z,11.68
2019-03-23T05:27:39.693Z,10.80
2019-03-23T05:30:08.602Z,11.95
2019-03-23T05:32:37.200Z,12.50
2019-03-23T05:35:06.935Z,11.28
2019-03-23T05:37:35.589Z,11.85
2019-03-23T05:40:06.429Z,13.18
2019-03-23T05:42:35.455Z,12.90
2019-03-23T05:45:06.168Z,13.22
2019-03-23T05:47:34.823Z,14.38
2019-03-23T05:50:05.672Z,13.78
2019-03-23T05:52:34.326Z,13.32
2019-03-23T05:55:04.370Z,13.43
2019-03-23T05:57:33.038Z,12.93
2019-03-23T06:00:01.909Z,13.60
2019-03-23T06:02:30.570Z,14.23
2019-03-23T06:04:59.224Z,13.03
2019-03-23T06:07:27.880Z,13.38
2019-03-23T06:09:56.537Z,12.78
2019-03-23T06:12:25.152Z,13.45
2019-03-23T06:14:53.814Z,14.47
2019-03-23T06:17:22.425Z,12.28
2019-03-23T06:19:51.035Z,14.13
2019-03-23T06:22:19.691Z,12.95
2019-03-23T06:24:48.350Z,13.40
2019-03-23T06:27:16.955Z,14.90
2019-03-23T06:29:45.708Z,15.65
2019-03-23T06:32:14.315Z,15.50
2019-03-23T06:34:42.965Z,14.33
2019-03-23T06:37:11.618Z,16.15
2019-03-23T06:39:40.248Z,16.27
2019-03-23T06:42:08.910Z,14.05
2019-03-23T06:44:37.562Z,14.98
2019-03-23T06:47:06.173Z,15.08
2019-03-23T06:49:34.828Z,15.98
2019-03-23T06:52:03.491Z,15.75
2019-03-23T06:54:32.100Z,15.40
2019-03-23T06:57:00.761Z,15.40
2019-03-23T06:59:29.423Z,16.40
2019-03-23T07:01:58.039Z,16.60
2019-03-23T07:04:26.953Z,16.00
2019-03-23T07:06:55.695Z,15.50
2019-03-23T07:09:24.368Z,16.32
2019-03-23T07:11:52.980Z,15.98
2019-03-23T07:14:21.638Z,15.98
2019-03-23T07:16:50.338Z,15.35
2019-03-23T07:19:19.000Z,15.70
2019-03-23T07:21:47.616Z,15.25
2019-03-23T07:24:16.273Z,15.85
2019-03-23T07:26:44.932Z,15.88
2019-03-23T07:29:13.592Z,16.93
2019-03-23T07:31:42.254Z,16.65
2019-03-23T07:34:10.865Z,15.72
2019-03-23T07:36:39.525Z,14.85
2019-03-23T07:39:08.137Z,16.20
2019-03-23T07:41:36.800Z,14.03
2019-03-23T07:44:05.484Z,15.18
2019-03-23T07:46:34.136Z,14.55
2019-03-23T07:49:02.948Z,14.07
2019-03-23T07:51:31.570Z,15.35
2019-03-23T07:54:02.595Z,15.38
2019-03-23T07:56:30.572Z,15.68
2019-03-23T07:58:59.231Z,14.87
2019-03-23T08:01:27.849Z,14.93
2019-03-23T08:03:56.507Z,16.27
2019-03-23T08:06:25.165Z,16.12
2019-03-23T08:08:53.780Z,14.75
2019-03-23T08:11:22.520Z,16.07
2019-03-23T08:13:51.178Z,15.32
2019-03-23T08:16:19.842Z,15.15
2019-03-23T08:18:48.507Z,15.78
2019-03-23T08:21:17.207Z,16.55
2019-03-23T08:23:45.821Z,17.32
2019-03-23T08:26:14.574Z,18.17
2019-03-23T08:28:43.183Z,17.60
2019-03-23T08:31:11.842Z,17.80
2019-03-23T08:33:40.478Z,18.42
2019-03-23T08:36:09.207Z,16.95
2019-03-23T08:38:37.866Z,18.05
2019-03-23T08:41:06.524Z,20.00
2019-03-23T08:43:35.199Z,18.55
2019-03-23T08:46:03.817Z,20.23
2019-03-23T08:48:32.429Z,19.80
2019-03-23T08:51:01.129Z,19.62
2019-03-23T08:53:29.750Z,19.20
2019-03-23T08:55:58.403Z,19.37
2019-03-23T08:58:28.371Z,20.17
2019-03-23T09:00:58.851Z,20.52
2019-03-23T09:03:27.464Z,19.35
2019-03-23T09:05:56.083Z,19.05
2019-03-23T09:08:24.748Z,21.62
2019-03-23T09:10:53.362Z,19.80
2019-03-23T09:13:22.020Z,19.77
2019-03-23T09:15:50.855Z,19.57
2019-03-23T09:18:19.469Z,20.32
2019-03-23T09:20:48.230Z,19.45
2019-03-23T09:23:16.847Z,19.02
2019-03-23T09:25:45.790Z,21.12
2019-03-23T09:28:14.593Z,19.27
2019-03-23T09:30:44.273Z,19.48
2019-03-23T09:33:12.891Z,19.90
2019-03-23T09:35:41.503Z,19.82
2019-03-23T09:38:10.174Z,19.80
2019-03-23T09:40:38.779Z,19.30
2019-03-23T09:43:07.445Z,19.02
2019-03-23T09:45:36.063Z,18.95
2019-03-23T09:48:04.867Z,18.48
2019-03-23T09:50:33.478Z,18.12
2019-03-23T09:53:02.137Z,18.50
2019-03-23T09:55:30.749Z,19.40
2019-03-23T09:57:59.423Z,19.23
2019-03-23T10:00:28.099Z,18.20
2019-03-23T10:02:56.719Z,18.67
2019-03-23T10:05:25.382Z,18.02
2019-03-23T10:07:53.999Z,18.05
2019-03-23T10:10:22.653Z,19.65
2019-03-23T10:12:51.357Z,16.48
2019-03-23T10:15:20.027Z,16.87
2019-03-23T10:17:48.638Z,17.62
2019-03-23T10:20:17.302Z,14.85
2019-03-23T10:22:45.963Z,16.02
2019-03-23T10:25:14.625Z,16.17
2019-03-23T10:27:43.233Z,17.75
2019-03-23T10:30:12.537Z,18.00
2019-03-23T10:32:41.268Z,17.67
2019-03-23T10:35:10.421Z,17.67
2019-03-23T10:37:39.250Z,17.60
2019-03-23T10:40:10.674Z,17.00
2019-03-23T10:42:40.199Z,16.10
2019-03-23T10:45:10.425Z,16.97
2019-03-23T10:47:39.150Z,17.55
2019-03-23T10:50:08.514Z,16.15
2019-03-23T10:52:37.183Z,16.67
2019-03-23T10:55:06.882Z,15.63
2019-03-23T10:57:35.629Z,15.58
2019-03-23T11:00:07.872Z,16.05
2019-03-23T11:02:36.490Z,16.17
2019-03-23T11:05:07.740Z,15.80
2019-03-23T11:07:36.355Z,14.75
2019-03-23T11:10:13.016Z,14.45
2019-03-23T11:12:41.632Z,13.08
2019-03-23T11:15:10.931Z,14.28
2019-03-23T11:17:39.590Z,12.65
2019-03-23T11:20:11.719Z,11.50
2019-03-23T11:22:40.560Z,12.10
2019-03-23T11:25:10.130Z,12.73
2019-03-23T11:27:38.923Z,11.57
2019-03-23T11:30:13.034Z,11.28
2019-03-23T11:32:41.931Z,11.53
2019-03-23T11:35:10.849Z,11.38
2019-03-23T11:37:39.844Z,11.68
2019-03-23T11:40:10.633Z,10.63
2019-03-23T11:42:49.262Z,10.53
2019-03-23T11:45:11.557Z,10.50
2019-03-23T11:47:40.165Z,10.32
2019-03-23T11:50:10.363Z,10.65
2019-03-23T11:52:39.048Z,11.12
2019-03-23T11:55:08.628Z,10.60
2019-03-23T11:57:37.318Z,10.68
2019-03-23T12:00:13.209Z,11.55
2019-03-23T12:02:41.893Z,11.33
2019-03-23T12:05:11.317Z,10.78
2019-03-23T12:07:39.978Z,11.20
2019-03-23T12:10:11.110Z,11.73
2019-03-23T12:12:39.775Z,13.10
2019-03-23T12:15:11.409Z,11.15
2019-03-23T12:17:40.235Z,13.25
2019-03-23T12:20:09.598Z,13.65
2019-03-23T12:22:38.311Z,13.00
2019-03-23T12:25:07.332Z,13.80
2019-03-23T12:27:35.953Z,16.35
2019-03-23T12:30:09.582Z,14.98
2019-03-23T12:32:38.199Z,15.50
2019-03-23T12:35:08.652Z,17.23
2019-03-23T12:37:37.323Z,16.10
2019-03-23T12:40:08.344Z,16.00
2019-03-23T12:42:37.001Z,15.20
2019-03-23T12:45:08.127Z,15.35
2019-03-23T12:47:36.783Z,17.12
2019-03-23T12:50:07.811Z,16.52
2019-03-23T12:52:36.476Z,17.25
2019-03-23T12:55:07.850Z,16.70
2019-03-23T12:57:36.524Z,14.78
2019-03-23T13:00:10.558Z,17.32
2019-03-23T13:02:39.282Z,20.05
2019-03-23T13:05:08.250Z,17.20
2019-03-23T13:07:36.866Z,17.52
2019-03-23T13:10:09.677Z,16.52
2019-03-23T13:12:38.292Z,16.15
2019-03-23T13:15:10.605Z,17.30
2019-03-23T13:17:39.217Z,18.90
2019-03-23T13:20:09.309Z,19.95
2019-03-23T13:22:38.021Z,22.22
2019-03-23T13:25:10.167Z,22.17
2019-03-23T13:27:38.854Z,23.07
2019-03-23T13:30:12.495Z,27.25
2019-03-23T13:32:41.157Z,28.38
2019-03-23T13:35:10.607Z,30.88
2019-03-23T13:37:39.264Z,27.20
2019-03-23T13:40:10.657Z,27.65
2019-03-23T13:42:39.309Z,35.23
2019-03-23T13:45:08.636Z,32.55
2019-03-23T13:47:38.127Z,32.93
2019-03-23T13:50:08.153Z,34.23
2019-03-23T13:52:36.882Z,31.33
2019-03-23T13:55:07.498Z,31.40
2019-03-23T13:57:36.162Z,30.72
2019-03-23T14:00:08.258Z,31.65
2019-03-23T14:02:36.916Z,30.72
2019-03-23T14:05:12.239Z,30.17
2019-03-23T14:07:36.543Z,28.55
2019-03-23T14:10:06.410Z,30.15
2019-03-23T14:12:35.079Z,30.52
2019-03-23T14:15:05.441Z,32.08
2019-03-23T14:17:34.053Z,30.72
2019-03-23T14:20:04.084Z,32.70
2019-03-23T14:22:32.699Z,29.27
2019-03-23T14:25:01.362Z,30.77
2019-03-23T14:27:29.973Z,28.50
2019-03-23T14:29:58.671Z,29.87
2019-03-23T14:32:27.290Z,26.70
2019-03-23T14:34:55.949Z,32.55
2019-03-23T14:37:24.566Z,29.57
2019-03-23T14:39:53.224Z,28.35
2019-03-23T14:42:21.836Z,28.15
2019-03-23T14:44:50.513Z,27.55
2019-03-23T14:47:19.123Z,27.82
2019-03-23T14:49:47.816Z,29.70
2019-03-23T14:52:16.476Z,30.37
2019-03-23T14:54:45.126Z,29.05
2019-03-23T14:57:13.789Z,26.23
2019-03-23T14:59:42.406Z,26.30
2019-03-23T15:02:11.074Z,29.82
2019-03-23T15:04:39.692Z,27.70
2019-03-23T15:07:08.351Z,27.73
2019-03-23T15:09:36.973Z,27.07
2019-03-23T15:12:14.719Z,27.07
2019-03-23T15:14:35.979Z,26.25
2019-03-23T15:17:04.628Z,25.95
2019-03-23T15:19:33.297Z,26.90
2019-03-23T15:22:01.919Z,26.52
2019-03-23T15:24:30.534Z,27.58
2019-03-23T15:26:59.194Z,27.30
2019-03-23T15:29:27.861Z,25.90
2019-03-23T15:31:56.476Z,44.95
2019-03-23T15:34:25.139Z,26.60
2019-03-23T15:36:53.753Z,23.50
2019-03-23T15:39:22.422Z,24.75
2019-03-23T15:41:51.040Z,23.55
2019-03-23T15:44:19.701Z,22.87
2019-03-23T15:46:48.319Z,20.65
2019-03-23T15:49:16.984Z,21.00
2019-03-23T15:51:45.598Z,23.80
2019-03-23T15:54:14.255Z,20.88
2019-03-23T15:56:42.874Z,20.95
2019-03-23T15:59:11.490Z,23.57
2019-03-23T16:01:40.157Z,28.25
2019-03-23T16:04:08.776Z,25.97
2019-03-23T16:06:37.427Z,21.52
2019-03-23T16:09:06.880Z,19.90
2019-03-23T16:11:35.541Z,26.95
2019-03-23T16:14:04.158Z,19.42
2019-03-23T16:16:32.825Z,19.27
2019-03-23T16:19:01.442Z,18.77
2019-03-23T16:21:30.057Z,16.93
2019-03-23T16:23:58.748Z,18.67
2019-03-23T16:26:27.359Z,19.25
2019-03-23T16:28:56.024Z,30.55
2019-03-23T16:31:24.639Z,21.12
2019-03-23T16:33:53.297Z,23.30
2019-03-23T16:36:21.908Z,19.77
2019-03-23T16:38:50.572Z,19.40
2019-03-23T16:41:19.185Z,18.80
2019-03-23T16:43:47.844Z,18.67
2019-03-23T16:46:16.508Z,23.40
2019-03-23T16:48:45.123Z,20.32
2019-03-23T16:51:13.780Z,19.02
2019-03-23T16:53:42.468Z,19.55
2019-03-23T16:56:11.138Z,30.02
2019-03-23T16:58:39.859Z,21.02
2019-03-23T17:01:08.580Z,21.30
2019-03-23T17:03:37.197Z,24.40
2019-03-23T17:06:05.863Z,55.08
2019-03-23T17:08:34.476Z,23.98
2019-03-23T17:11:03.274Z,19.67
2019-03-23T17:13:31.890Z,18.45
2019-03-23T17:16:00.558Z,18.02
2019-03-23T17:18:29.173Z,24.27
2019-03-23T17:20:57.798Z,33.53
2019-03-23T17:23:26.499Z,29.50
2019-03-23T17:25:55.115Z,22.73
2019-03-23T17:28:23.771Z,19.98
2019-03-23T17:30:52.385Z,23.62
2019-03-23T17:33:21.045Z,26.42
2019-03-23T17:35:49.662Z,32.85
2019-03-23T17:38:19.506Z,27.15
2019-03-23T17:40:48.221Z,23.32
2019-03-23T17:43:16.832Z,22.60
2019-03-23T17:45:45.498Z,22.05
2019-03-23T17:48:14.165Z,32.60
2019-03-23T17:50:42.829Z,38.53
2019-03-23T17:53:11.442Z,32.05
2019-03-23T17:55:40.102Z,31.62
2019-03-23T17:58:08.768Z,35.30
2019-03-23T18:00:37.382Z,34.63
2019-03-23T18:03:06.044Z,27.52
2019-03-23T18:05:34.657Z,24.52
2019-03-23T18:08:03.392Z,26.62
2019-03-23T18:10:32.006Z,21.57
2019-03-23T18:13:00.663Z,21.10
2019-03-23T18:15:29.343Z,26.95
2019-03-23T18:17:58.001Z,39.18
2019-03-23T18:20:26.616Z,41.68
2019-03-23T18:22:55.267Z,25.30
2019-03-23T18:25:23.933Z,19.95
2019-03-23T18:27:52.598Z,25.97
2019-03-23T18:30:36.950Z,22.87
2019-03-23T18:33:07.272Z,27.77
2019-03-23T18:35:36.134Z,26.57
2019-03-23T18:38:05.290Z,31.00
2019-03-23T18:40:34.891Z,24.05
2019-03-23T18:43:04.080Z,28.45
2019-03-23T18:45:32.748Z,31.95
2019-03-23T18:48:01.362Z,36.90
2019-03-23T18:50:30.039Z,22.05
2019-03-23T18:52:58.702Z,16.67
2019-03-23T18:55:27.315Z,14.43
2019-03-23T18:57:57.747Z,12.65
2019-03-23T19:00:36.669Z,11.33
2019-03-23T19:03:05.785Z,14.35
2019-03-23T19:05:35.211Z,12.53
2019-03-23T19:08:04.260Z,12.60
2019-03-23T19:10:33.087Z,11.22
2019-03-23T19:13:01.705Z,10.10
2019-03-23T19:15:30.538Z,11.40
2019-03-23T19:17:59.201Z,16.23
2019-03-23T19:20:27.813Z,21.50
2019-03-23T19:22:56.424Z,21.23
2019-03-23T19:25:25.092Z,19.55
2019-03-23T19:27:53.700Z,14.85
2019-03-23T19:30:22.701Z,16.15
2019-03-23T19:32:51.319Z,14.20
2019-03-23T19:35:19.985Z,11.95
2019-03-23T19:37:48.647Z,11.60
2019-03-23T19:40:17.566Z,12.40
2019-03-23T19:42:46.219Z,12.58
2019-03-23T19:45:14.948Z,13.72
2019-03-23T19:47:43.561Z,13.53
2019-03-23T19:50:12.402Z,12.30
2019-03-23T19:52:41.020Z,12.05
2019-03-23T19:55:10.235Z,13.58
2019-03-23T19:57:38.935Z,11.83
2019-03-23T20:00:09.954Z,9.53
2019-03-23T20:02:38.765Z,8.73
2019-03-23T20:05:07.617Z,8.70
2019-03-23T20:07:36.276Z,6.87
2019-03-23T20:10:08.860Z,6.45
2019-03-23T20:12:37.810Z,5.47
2019-03-23T20:15:08.224Z,5.62
2019-03-23T20:17:37.016Z,5.83
2019-03-23T20:20:08.335Z,4.85
2019-03-23T20:22:36.994Z,5.40
2019-03-23T20:25:07.078Z,4.92
2019-03-23T20:27:35.687Z,5.37
2019-03-23T20:30:08.855Z,5.97
2019-03-23T20:32:37.606Z,4.97
2019-03-23T20:35:07.494Z,6.25
2019-03-23T20:37:36.113Z,6.92
2019-03-23T20:40:07.556Z,6.35
2019-03-23T20:42:36.154Z,7.90
2019-03-23T20:45:07.500Z,8.85
2019-03-23T20:47:37.543Z,7.72
2019-03-23T20:50:08.911Z,8.28
2019-03-23T20:52:37.635Z,8.83
2019-03-23T20:55:25.692Z,7.87
2019-03-23T20:57:54.986Z,8.35
2019-03-23T21:00:23.719Z,7.85
2019-03-23T21:02:52.409Z,7.78
2019-03-23T21:05:21.090Z,7.97
2019-03-23T21:07:49.824Z,7.70
2019-03-23T21:10:18.440Z,8.58
2019-03-23T21:12:47.467Z,9.05
2019-03-23T21:15:16.078Z,8.33
2019-03-23T21:17:51.252Z,8.08
2019-03-23T21:20:15.215Z,7.15
2019-03-23T21:22:43.874Z,6.95
2019-03-23T21:25:12.802Z,6.33
2019-03-23T21:27:41.413Z,6.35
2019-03-23T21:30:17.413Z,5.87
2019-03-23T21:32:46.023Z,5.50
2019-03-23T21:35:15.779Z,5.28
2019-03-23T21:37:44.670Z,5.47
2019-03-23T21:40:13.572Z,6.10
2019-03-23T21:42:42.189Z,6.08
2019-03-23T21:45:11.396Z,5.40
2019-03-23T21:47:40.008Z,5.97
2019-03-23T21:50:09.378Z,5.75
2019-03-23T21:52:38.041Z,5.65
2019-03-23T21:55:08.108Z,5.67
2019-03-23T21:57:36.888Z,6.03
2019-03-23T22:00:08.264Z,5.53
2019-03-23T22:02:36.876Z,5.65
2019-03-23T22:05:06.946Z,6.05
2019-03-23T22:07:35.999Z,6.37
2019-03-23T22:10:07.368Z,6.25
2019-03-23T22:12:36.392Z,6.05
2019-03-23T22:15:08.251Z,5.95
2019-03-23T22:17:36.925Z,6.05
2019-03-23T22:20:07.616Z,6.25
2019-03-23T22:22:36.225Z,8.03
2019-03-23T22:25:06.500Z,7.40
2019-03-23T22:27:36.700Z,7.33
2019-03-23T22:30:11.636Z,7.85
2019-03-23T22:32:40.317Z,8.13
2019-03-23T22:35:10.187Z,7.08
2019-03-23T22:37:38.852Z,7.33
2019-03-23T22:40:11.341Z,7.33
2019-03-23T22:42:39.995Z,6.25
2019-03-23T22:45:09.932Z,6.35
2019-03-23T22:47:38.602Z,7.35
2019-03-23T22:50:08.876Z,7.47
2019-03-23T22:52:37.656Z,8.05
2019-03-23T22:55:07.156Z,7.22
2019-03-23T22:57:35.768Z,7.45
2019-03-23T23:00:17.782Z,7.35
2019-03-23T23:02:46.571Z,6.65
2019-03-23T23:05:15.406Z,6.92
2019-03-23T23:07:44.850Z,6.50
2019-03-23T23:10:13.700Z,7.10
2019-03-23T23:12:42.356Z,7.42
2019-03-23T23:15:11.737Z,7.62
2019-03-23T23:17:40.344Z,7.12
2019-03-23T23:20:10.191Z,6.97
2019-03-23T23:22:38.848Z,7.12
2019-03-23T23:25:08.421Z,6.08
2019-03-23T23:27:37.338Z,6.50
2019-03-23T23:30:08.673Z,5.87
2019-03-23T23:32:37.564Z,5.28
2019-03-23T23:35:08.785Z,5.37
2019-03-23T23:37:37.447Z,5.55
2019-03-23T23:40:07.159Z,5.67
2019-03-23T23:42:36.000Z,5.87
2019-03-23T23:45:15.384Z,5.50
2019-03-23T23:47:40.133Z,4.53
2019-03-23T23:50:10.477Z,5.15
2019-03-23T23:52:39.137Z,5.10
2019-03-23T23:55:08.084Z,5.25
2019-03-23T23:57:36.705Z,5.05
